Latest Coastal Weather Observations for Darwin Airport

IDD60701

Issued at 2:21 am CST Tuesday 24 January 2017 (issued every 10 minutes, with the page automatically refreshed every 10 minutes)

About coastal observations | Map of coastal stations | Coastal observations for NT | Marine services | Other Formats
Station Details ID: 014015 Name: DARWIN AIRPORT Lat: -12.42 Lon: 130.89 Height: 30.4 m
Data from the previous 72 hours. | See also: Recent months at Darwin Airport
Date/Time
CST
Temp
°C
Wind Pressure Rain since
9am
mm
Weather Cloud Vis
km
Sea
Height
m
Swell
Dir  Spd
kts
Gust
kts
hPa Trend Height
m
Period
s
Dir
24/02:00am 22.6 S 6 8 1006.8 - 108.6 Rain Mostly clear 5 - - - -
24/01:30am 23.2 S 7 11 1007.3 - 102.0 - Mostly clear 3 - - - -
24/01:00am 22.7 S 17 25 1007.8 - 93.0 Rain Partly cloudy 2 - - - -
24/12:30am 24.9 SSW 11 17 1007.7 - 68.6 - Partly cloudy 2 - - - -
24/12:00am 23.8 SW 9 13 1008.1 R 51.4 Showers Mostly cloudy 3 - - - -
 
Date/Time
CST
Temp
°C
Wind Pressure Rain since
9am
mm
Weather Cloud Vis
km
Sea
Height
m
Swell
Dir  Spd
kts
Gust
kts
hPa Trend Height
m
Period
s
Dir
23/11:49pm 24.0 SW 15 23 1008.6 - 46.4 Showers Partly cloudy 2 - - - -
23/11:30pm 25.3 SSW 10 19 1008.1 - 38.0 - Partly cloudy 3 - - - -
23/11:00pm 25.3 S 8 11 1008.1 - 37.2 Showers Mostly cloudy 9 - - - -
23/10:30pm 26.8 WSW 9 13 1007.8 - 35.4 - Mostly clear 6 - - - -
23/10:00pm 26.4 W 10 14 1007.2 - 34.0 Showers Partly cloudy 8 - - - -
23/09:47pm 26.0 W 9 14 1007.2 - 33.2 Showers Partly cloudy 5 - - - -
23/09:30pm 25.2 W 5 8 1007.2 - 29.0 - Mostly clear 2 - - - -
23/09:00pm 24.7 WSW 15 26 1006.9 F 12.6 Showers Mostly cloudy 2 - - - -
23/08:54pm 27.1 WNW 12 26 1006.7 - 9.2 Showers Mostly clear 6 - - - -
23/08:38pm 26.9 NW 11 15 1006.4 - 9.2 - Partly cloudy 10 - - - -
23/08:30pm 26.8 NW 11 15 1006.4 - 9.2 - Partly cloudy 8 - - - -
23/08:00pm 26.5 WNW 10 13 1006.1 - 9.2 - Partly cloudy 10 - - - -
23/07:30pm 26.2 WNW 11 15 1006.1 - 9.2 - Mostly clear 10 - - - -
23/07:00pm 25.2 WNW 7 10 1005.8 - 9.2 - Partly cloudy 10 - - - -
23/06:30pm 25.1 W 7 10 1005.5 - 9.2 - Partly cloudy 8 - - - -
23/06:07pm 25.1 W 9 11 1005.3 - 9.0 - Partly cloudy 10 - - - -
23/06:00pm 25.0 W 8 10 1005.2 F 9.0 Rain Mostly cloudy 8 - - - -
23/05:41pm 24.9 W 9 14 1005.0 - 9.0 - Partly cloudy 10 - - - -
23/05:30pm 24.9 W 8 13 1005.0 - 8.8 - Mostly clear 8 - - - -
23/05:24pm 24.9 W 8 10 1005.0 - 8.8 - Partly cloudy 9 - - - -
23/05:00pm 25.0 WSW 5 7 1004.8 - 8.4 Rain Mostly clear 8 - - - -
23/04:30pm 24.9 SW 7 10 1004.9 - 8.2 - Mostly clear 9 - - - -
23/04:00pm 24.6 SSW 13 19 1005.1 - 8.0 Showers Mostly clear 7 - - - -
23/03:47pm 25.5 WSW 12 18 1005.3 - 7.6 Showers Mostly clear 3 - - - -
23/03:30pm 25.5 W 10 14 1005.4 - 7.6 - Mostly clear 6 - - - -
23/03:04pm 26.8 WNW 13 26 1005.6 - 7.2 Showers Mostly clear 2 - - - -
23/03:00pm 27.0 WNW 11 14 1005.5 R 7.2 Showers Cloudy 3 - - - -
23/02:30pm 25.7 W 10 16 1005.8 - 7.2 - Mostly clear 9 - - - -
23/02:25pm 26.0 W 12 16 1005.8 - 7.2 Showers Mostly clear 4 - - - -
23/02:06pm 26.3 W 8 12 1006.2 - 6.4 - Partly cloudy 10 - - - -
23/02:00pm 26.5 WNW 9 12 1006.2 - 6.4 Rain Mostly clear 10 - - - -
23/01:51pm 26.2 WNW 9 13 1006.3 - 6.4 Rain Mostly clear 10 - - - -
23/01:30pm 25.9 WNW 8 11 1006.3 - 6.2 - Partly cloudy 10 - - - -
23/01:08pm 25.3 WNW 7 10 1006.7 - 6.0 Rain Mostly clear 5 - - - -
23/01:00pm 25.1 W 9 13 1006.9 - 6.0 Rain Mostly clear 9 - - - -
23/12:30pm 24.8 WSW 11 15 1007.0 - 6.0 - Mostly clear 9 - - - -
23/12:04pm 25.8 W 14 21 1007.0 - 0.2 Showers Mostly clear 0.8 - - - -
23/12:00pm 26.5 W 16 24 1006.9 F 0.2 Showers Cloudy 2 - - - -
23/11:52am 30.0 W 6 21 1006.9 - 0.2 Showers Mostly clear 4 - - - -
23/11:46am 30.0 W 3 8 1006.8 - 0.2 Showers Mostly clear 6 - - - -
23/11:30am 30.1 WSW 4 7 1007.3 - 0.2 - Partly cloudy 10 - - - -
23/11:00am 29.0 WSW 4 6 1007.5 - 0.0 - Partly cloudy 10 - - - -
23/10:30am 27.7 SSW 2 4 1007.9 - 0.0 - Mostly clear 10 - - - -
23/10:00am 27.5 S 2 3 1008.1 - 0.0 - Mostly clear 10 - - - -
23/09:30am 27.1 S 5 8 1007.9 - 0.0 - Mostly clear 10 - - - -
23/09:00am 27.5 S 4 5 1007.8 R 15.0 Fine Cloudy 30 - - - -
23/08:30am 26.5 SW 5 7 1007.6 - 15.0 - Mostly clear 10 - - - -
23/08:00am 25.3 ESE 3 4 1007.6 - 15.0 - Mostly clear 10 - - - -
23/07:30am 24.8 CALM 0 0 1007.2 - 15.0 - Mostly clear 10 - - - -
23/07:00am 24.7 CALM 0 1 1006.7 - 15.0 - Mostly clear 10 - - - -
23/06:30am 25.1 W 2 4 1006.0 - 15.0 - Mostly clear 10 - - - -
23/06:00am 24.8 W 4 5 1005.5 F 15.0 Recent precip. Mostly cloudy 30 - - - -
23/05:30am 24.9 WNW 4 6 1005.8 - 15.0 - Partly cloudy 10 - - - -
23/05:00am 25.4 WSW 7 10 1005.7 - 15.0 - Partly cloudy 10 - - - -
23/04:30am 25.7 SW 8 12 1005.6 - 15.0 - Partly cloudy 10 - - - -
23/04:22am 25.5 SW 10 13 1005.4 - 15.0 - Partly cloudy 10 - - - -
23/04:00am 25.5 SW 11 15 1005.4 - 13.8 - Partly cloudy 2 - - - -
23/03:56am 25.9 SW 7 15 1005.5 - 10.8 - Partly cloudy 4 - - - -
23/03:30am 27.0 WSW 3 4 1005.3 - 7.2 - Partly cloudy 10 - - - -
23/03:00am 27.1 W 7 10 1005.6 F 7.2 Showers Cloudy 10 - - - -
23/02:40am 26.7 W 6 9 1005.9 - 7.2 - Partly cloudy 10 - - - -
23/02:30am 26.7 W 6 9 1006.3 - 7.2 - Partly cloudy 6 - - - -
23/02:21am 26.7 W 7 10 1006.2 - 7.0 - Partly cloudy 5 - - - -
23/02:00am 27.0 W 10 16 1006.4 - 5.6 Thunder Mostly clear 8 - - - -
23/01:30am 27.6 WSW 6 8 1006.8 - 4.8 - Mostly clear 9 - - - -
23/01:00am 27.5 W 5 8 1007.2 - 4.8 - Mostly clear 10 - - - -
23/12:30am 27.4 W 7 11 1007.3 - 4.8 - Mostly clear 10 - - - -
23/12:00am 27.1 WSW 8 11 1007.6 F 4.6 Showers Mostly cloudy 6 - - - -
 
Date/Time
CST
Temp
°C
Wind Pressure Rain since
9am
mm
Weather Cloud Vis
km
Sea
Height
m
Swell
Dir  Spd
kts
Gust
kts
hPa Trend Height
m
Period
s
Dir
22/11:42pm 27.9 W 6 8 1007.9 - 4.0 - Mostly clear 6 - - - -
22/11:30pm 28.1 WSW 7 9 1008.2 - 4.0 - Mostly clear 10 - - - -
22/11:00pm 28.1 WSW 7 10 1008.7 - 4.0 Thunder Mostly clear 10 - - - -
22/10:30pm 27.9 W 7 8 1008.6 - 4.0 - Partly cloudy 10 - - - -
22/10:00pm 26.8 WNW 5 7 1008.3 - 4.0 - Mostly clear 10 - - - -
22/09:30pm 27.1 NW 5 7 1008.3 - 4.0 - Mostly clear 10 - - - -
22/09:00pm 26.7 W 5 7 1008.3 F 4.0 Rain Mostly cloudy 20 - - - -
22/08:30pm 26.6 WNW 4 6 1008.0 - 3.8 - Mostly clear 10 - - - -
22/08:00pm 27.0 WSW 7 9 1008.0 - 3.8 Rain Partly cloudy 10 - - - -
22/07:30pm 26.1 WSW 3 4 1007.3 - 3.6 - Mostly clear 10 - - - -
22/07:00pm 26.0 WNW 9 13 1007.1 - 3.2 - Mostly clear 9 - - - -
22/06:47pm 26.4 WSW 14 20 1006.9 - 2.4 Showers Mostly clear 1 - - - -
22/06:43pm 27.7 WSW 10 19 1006.8 - 0.4 Showers Partly cloudy 3 - - - -
22/06:30pm 28.2 WSW 6 8 1006.6 - 0.4 - Mostly clear 8 - - - -
22/06:00pm 28.1 W 7 9 1006.5 R 0.4 Distant precip. Mostly cloudy 15 - - - -
22/05:30pm 27.8 WSW 6 8 1006.0 - 0.4 - Mostly clear 10 - - - -
22/05:00pm 27.1 WSW 7 9 1005.9 - 0.4 - Mostly clear 10 - - - -
22/04:42pm 27.0 WSW 10 14 1005.6 - 0.2 Showers Mostly clear 6 - - - -
22/04:30pm 26.8 WSW 9 12 1005.7 - 0.2 - Mostly clear 10 - - - -
22/04:00pm 30.2 W 15 19 1005.5 - 0.2 Showers Mostly clear 6 - - - -
22/03:30pm 30.7 W 15 21 1005.0 - 0.2 - Mostly clear 10 - - - -
22/03:00pm 32.2 W 15 21 1005.4 F 0.2 Distant precip. Cloudy 20 - - - -
22/02:30pm 31.5 W 16 21 1005.5 - 0.2 - Mostly clear 10 - - - -
22/02:00pm 31.8 W 16 22 1006.0 - 0.2 - Mostly clear 10 - - - -
22/01:30pm 31.4 W 14 18 1006.7 - 0.2 - Mostly clear 10 - - - -
22/01:00pm 32.0 W 12 16 1007.3 - 0.2 - Mostly clear 10 - - - -
22/12:30pm 32.3 WSW 11 15 1007.8 - 0.2 - Mostly clear 10 - - - -
22/12:00pm 31.4 WSW 11 15 1008.1 F 0.2 Fine Mostly cloudy 30 - - - -
22/11:30am 31.8 WSW 11 16 1008.2 - 0.2 - Mostly clear 10 - - - -
22/11:00am 31.3 WSW 13 18 1008.5 - 0.2 - Mostly clear 10 - - - -
22/10:30am 30.9 W 11 15 1008.8 - 0.2 - Mostly clear 10 - - - -
22/10:00am 30.1 WSW 9 11 1008.9 - 0.2 - Mostly clear 10 - - - -
22/09:30am 30.3 WSW 10 14 1009.2 - 0.2 - Partly cloudy 10 - - - -
22/09:00am 29.4 WSW 5 7 1009.5 F 3.8 Fine Mostly cloudy 30 - - - -
22/08:30am 28.8 W 5 6 1009.5 - 3.8 - Mostly clear 10 - - - -
22/08:00am 28.3 W 5 7 1009.4 - 3.8 - Mostly clear 10 - - - -
22/07:30am 27.8 WSW 4 5 1009.2 - 3.8 - Mostly clear 10 - - - -
22/07:00am 27.4 W 5 7 1009.0 - 3.8 - Mostly clear 10 - - - -
22/06:30am 27.1 W 6 8 1008.6 - 3.8 - Mostly clear 10 - - - -
22/06:00am 27.0 W 6 9 1008.3 F 3.8 Fine Mostly cloudy 30 - - - -
22/05:30am 27.0 WSW 6 7 1008.2 - 3.8 - Mostly clear 10 - - - -
22/05:00am 26.7 W 5 8 1008.1 - 3.8 - - 10 - - - -
22/04:30am 26.3 WSW 5 7 1008.0 - 3.8 - - 10 - - - -
22/04:00am 25.2 W 4 5 1008.2 - 3.8 - Partly cloudy 10 - - - -
22/03:36am 25.2 SW 2 3 1008.4 - 3.8 - Partly cloudy 10 - - - -
22/03:30am 25.2 SW 3 5 1008.5 - 3.8 - Partly cloudy 10 - - - -
22/03:20am 25.3 WSW 8 14 1008.7 - 3.6 - Partly cloudy 6 - - - -
22/03:00am 26.5 WSW 3 4 1008.6 R 2.0 Showers Partly cloudy 10 - - - -
22/02:30am 26.2 WSW 4 5 1008.8 - 2.0 - - 10 - - - -
22/02:00am 26.2 W 3 4 1008.7 - 2.0 Rain Mostly clear 10 - - - -
22/01:30am 26.3 W 3 4 1008.8 - 2.0 - - 10 - - - -
22/01:00am 26.2 W 2 3 1009.2 - 2.0 Rain Mostly clear 10 - - - -
22/12:30am 26.2 W 2 3 1009.6 - 1.4 - Partly cloudy 10 - - - -
22/12:00am 26.2 CALM 0 0 1009.9 F 1.4 Rain Cloudy 16 - - - -
 
Date/Time
CST
Temp
°C
Wind Pressure Rain since
9am
mm
Weather Cloud Vis
km
Sea
Height
m
Swell
Dir  Spd
kts
Gust
kts
hPa Trend Height
m
Period
s
Dir
21/11:30pm 26.4 SW 3 5 1010.4 - 1.4 - Mostly clear 10 - - - -
21/11:00pm 26.7 SSW 5 8 1010.5 - 1.4 Rain Mostly clear 10 - - - -
21/10:30pm 27.2 SSW 8 11 1010.4 - 1.4 - Mostly clear 10 - - - -
21/10:00pm 28.0 WSW 6 8 1010.4 - 1.4 - Mostly clear 10 - - - -
21/09:30pm 27.7 W 5 6 1009.9 - 1.4 - Mostly clear 10 - - - -
21/09:00pm 27.5 WNW 3 4 1009.8 S 1.4 Fine Mostly cloudy 30 - - - -
21/08:30pm 27.5 W 5 5 1009.4 - 1.4 - Mostly clear 10 - - - -
21/08:00pm 27.6 WNW 3 4 1009.0 - 1.4 - Mostly clear 10 - - - -
21/07:30pm 27.9 W 4 5 1008.8 - 1.4 - Mostly clear 10 - - - -
21/07:00pm 28.4 W 7 9 1008.4 - 1.4 Showers Mostly clear 10 - - - -
21/06:30pm 29.0 WNW 9 11 1007.9 - 1.4 - Mostly clear 10 - - - -
21/06:00pm 29.2 WNW 9 12 1007.8 R 1.4 Fine Mostly cloudy 30 - - - -
21/05:30pm 30.3 WNW 7 10 1007.1 - 1.4 - Mostly clear 10 - - - -
21/05:00pm 30.0 WNW 10 13 1007.1 - 1.4 - Partly cloudy 10 - - - -
21/04:30pm 30.0 WNW 11 15 1007.0 - 1.4 - Partly cloudy 10 - - - -
21/04:00pm 29.8 WNW 9 12 1007.2 - 1.4 - Partly cloudy 10 - - - -
21/03:30pm 29.5 WNW 6 10 1007.4 - 1.4 - Partly cloudy 10 - - - -
21/03:00pm 29.4 W 4 7 1007.7 S 1.4 Fine Mostly cloudy 30 - - - -
21/02:30pm 29.6 WSW 6 9 1007.8 - 1.4 - Partly cloudy 10 - - - -
21/02:00pm 29.3 SW 6 9 1008.3 - 1.4 - Partly cloudy 10 - - - -
21/01:30pm 28.8 SW 6 9 1008.4 - 1.4 - Mostly clear 10 - - - -
21/01:00pm 28.0 SSW 6 8 1008.8 - 1.2 - Mostly clear 10 - - - -
21/12:30pm 27.1 SW 4 5 1009.3 - 1.2 - Mostly clear 10 - - - -
21/12:00pm 26.1 SSW 1 3 1009.6 F 1.2 Distant precip. Mostly cloudy 20 - - - -
21/11:30am 25.6 S 3 4 1010.3 - 1.2 - Mostly clear 10 - - - -
21/11:00am 25.4 SSE 3 3 1010.8 - 1.2 Rain Mostly clear 10 - - - -
21/10:30am 25.0 SSE 4 5 1011.0 - 1.0 - Mostly clear 10 - - - -
21/10:00am 24.6 SSE 4 5 1011.2 - 0.6 Rain Mostly clear 9 - - - -
21/09:30am 24.5 SE 4 4 1011.3 - 0.2 - Mostly clear 9 - - - -
21/09:00am 24.4 SE 2 3 1011.3 R 21.6 Rain Mostly cloudy 9 - - - -
21/08:30am 24.3 ESE 2 3 1011.3 - 21.6 - Mostly clear 10 - - - -
21/08:00am 24.2 E 2 3 1011.0 - 21.4 Rain Partly cloudy 8 - - - -
21/07:30am 24.3 NNW 3 6 1011.0 - 20.8 - Mostly clear 6 - - - -
21/07:00am 24.2 WSW 13 19 1010.4 - 19.4 Showers Mostly clear 4 - - - -
21/06:54am 24.5 SW 15 21 1010.1 - 19.0 Showers Mostly clear 2 - - - -
21/06:40am 24.8 CALM 0 6 1009.5 - 18.6 Showers Mostly clear 5 - - - -
21/06:30am 24.8 SW 1 2 1009.4 - 18.4 - Mostly clear 8 - - - -
21/06:07am 24.7 SSW 9 16 1009.1 - 9.0 Showers Partly cloudy 4 - - - -
21/06:00am 24.6 SW 9 16 1008.8 R 8.2 Showers Mostly cloudy 8 - - - -
21/05:43am 26.0 WNW 7 14 1008.6 - 2.2 Showers Mostly clear 4 - - - -
21/05:30am 26.1 NNW 2 5 1008.4 - 1.4 - Partly cloudy 10 - - - -
21/05:00am 26.3 SW 2 3 1008.2 - 1.4 - Partly cloudy 10 - - - -
21/04:30am 27.0 NNW 4 7 1007.8 - 1.4 - Partly cloudy 10 - - - -
21/04:00am 27.3 NW 6 7 1007.8 - 1.2 - Partly cloudy 10 - - - -
21/03:30am 27.0 NNW 5 6 1008.1 - 1.2 - Partly cloudy 10 - - - -
21/03:00am 27.0 NNW 4 6 1007.9 S 1.2 Rain Cloudy 10 - - - -
21/02:30am 27.2 NNW 4 5 1008.2 - 1.2 - Partly cloudy 10 - - - -

Other Formats:

Comma delimited format used in spreadsheet applications
http://www.bom.gov.au/fwo/IDD60701/IDD60701.94120.axf

JavaScript Object Notation format (JSON) in row-major order
http://www.bom.gov.au/fwo/IDD60701/IDD60701.94120.json